Terminal Aerodrome Forecast
Issued by NWS

Home | Current Version | Previous Version | Text Only | Print | Product List | Glossary On
Versions: 1 2 3 4 5 6 7 8 9 10 11 12 13 14 15 16
000
FTUS46 KPQR 232331 AAA
TAFONP
TAF AMD
KONP 232331Z 2400/2424 19020G30KT P6SM -RA SCT015 BKN025 OVC040
     FM240200 18025G40KT 5SM -RA BKN015 OVC035
     FM240700 21015G25KT 5SM -RA OVC025
     FM241400 21009KT P6SM -RA OVC040
     FM242000 19025G35KT P6SM -RA BKN025 OVC040=

USA.gov is the U.S. government's official web portal to all federal, state and local government web resources and services.